Time;durP1;ratioP1;P1;durP2;ratioP2;P2;SDS_P1;SDS_P2;PMS_P1;PMS_P2;Temp;Humidity;BMP_temperature;BMP_pressure;BME280_temperature;BME280_humidity;BME280_pressure;Samples;Min_cycle;Max_cycle;Signal;HPM_P1;HPM_P2
2023/05/14 00:01:35;;;;;;;3.60;3.30;;;;;;;19.02;50.83;102235.66;106775;1276;22523;-51
2023/05/14 00:04:02;;;;;;;4.90;3.60;;;;;;;19.02;50.61;102240.61;106822;1275;24269;-51
2023/05/14 00:06:30;;;;;;;5.20;3.70;;;;;;;19.00;50.38;102241.70;106782;1270;24256;-51
2023/05/14 00:08:57;;;;;;;5.80;3.60;;;;;;;18.98;50.98;102242.31;106860;1272;24199;-52
2023/05/14 00:11:24;;;;;;;7.50;3.40;;;;;;;18.97;51.65;102241.11;106825;1270;22605;-51
2023/05/14 00:13:52;;;;;;;4.70;3.70;;;;;;;18.96;52.21;102243.09;106832;1270;24378;-51
2023/05/14 00:16:19;;;;;;;6.90;4.00;;;;;;;18.94;52.34;102240.48;106787;1276;24216;-51
2023/05/14 00:18:46;;;;;;;6.40;4.00;;;;;;;18.91;52.00;102245.88;106785;1273;25258;-50
2023/05/14 00:21:13;;;;;;;5.40;3.80;;;;;;;18.88;51.44;102246.52;106829;1257;22525;-51
2023/05/14 00:23:40;;;;;;;7.80;3.80;;;;;;;18.85;51.20;102245.38;106703;1276;22556;-51
2023/05/14 00:26:08;;;;;;;4.70;4.20;;;;;;;18.84;50.51;102247.16;106744;1273;22633;-51
2023/05/14 00:28:35;;;;;;;4.60;3.70;;;;;;;18.81;50.27;102246.05;106773;1276;24346;-51
2023/05/14 00:31:03;;;;;;;5.30;3.80;;;;;;;18.79;50.61;102248.39;106820;1269;22539;-52
2023/05/14 00:33:31;;;;;;;7.50;4.40;;;;;;;18.78;50.93;102244.75;106798;1269;25338;-51
2023/05/14 00:35:58;;;;;;;8.30;4.50;;;;;;;18.77;51.03;102246.70;106809;1268;22528;-52
2023/05/14 00:38:27;;;;;;;6.60;3.90;;;;;;;18.74;50.54;102247.52;106760;1276;22516;-51
2023/05/14 00:40:54;;;;;;;6.40;4.00;;;;;;;18.71;49.94;102249.73;106849;1270;24252;-51
2023/05/14 00:43:22;;;;;;;5.10;4.10;;;;;;;18.69;49.74;102252.59;106650;1275;22517;-51
2023/05/14 00:45:50;;;;;;;5.60;3.50;;;;;;;18.71;50.18;102252.87;106761;1270;24360;-50
2023/05/14 00:48:17;;;;;;;6.90;3.80;;;;;;;18.69;50.44;102249.61;106896;1269;24275;-51
2023/05/14 00:50:44;;;;;;;7.20;4.10;;;;;;;18.60;50.51;102252.88;106776;1276;27179;-51
2023/05/14 00:53:11;;;;;;;4.10;3.60;;;;;;;18.57;50.44;102249.98;106864;1274;23221;-52
2023/05/14 00:55:40;;;;;;;4.70;3.70;;;;;;;18.55;50.43;102254.60;107066;1270;24269;-51
2023/05/14 00:58:12;;;;;;;6.20;3.90;;;;;;;18.55;50.70;102258.84;107036;1272;22872;-51
2023/05/14 01:00:39;;;;;;;5.10;3.80;;;;;;;18.59;51.13;102256.42;107033;1272;22521;-51
2023/05/14 01:03:07;;;;;;;4.20;3.70;;;;;;;18.59;50.66;102257.81;107137;1271;24222;-52
2023/05/14 01:05:53;;;;;;;5.60;3.70;;;;;;;18.56;50.35;102257.04;106785;1273;25485;-51
2023/05/14 01:08:30;;;;;;;5.00;3.70;;;;;;;18.57;50.01;102258.05;107119;1267;24391;-51
2023/05/14 01:11:11;;;;;;;5.20;3.30;;;;;;;18.58;49.75;102253.98;107016;1270;24339;-51
2023/05/14 01:14:16;;;;;;;6.70;4.10;;;;;;;18.58;49.43;102253.27;107116;1270;24265;-51
2023/05/14 01:16:44;;;;;;;6.40;4.00;;;;;;;18.58;49.34;102249.25;107082;1271;24237;-52
2023/05/14 01:19:28;;;;;;;6.70;3.80;;;;;;;18.60;49.43;102255.31;107130;1272;25349;-51
2023/05/14 01:21:55;;;;;;;4.20;3.70;;;;;;;18.59;49.55;102250.61;107087;1269;24271;-51
2023/05/14 01:24:22;;;;;;;4.40;3.90;;;;;;;18.58;50.09;102250.11;107037;1269;22520;-52
2023/05/14 01:26:50;;;;;;;7.30;4.20;;;;;;;18.56;50.38;102249.32;107008;1270;24365;-51
2023/05/14 01:29:20;;;;;;;5.50;3.70;;;;;;;18.55;50.62;102249.88;105403;1273;1003602;-51
2023/05/14 01:31:49;;;;;;;3.70;2.90;;;;;;;18.53;50.13;102249.20;106981;1272;24366;-51
2023/05/14 01:34:21;;;;;;;6.60;4.10;;;;;;;18.54;50.02;102252.02;106781;1270;25277;-51
2023/05/14 01:36:49;;;;;;;4.30;3.80;;;;;;;18.51;50.04;102256.50;107135;1270;22524;-51
2023/05/14 01:39:17;;;;;;;4.60;3.20;;;;;;;18.50;49.84;102255.48;107100;1267;25460;-51
2023/05/14 01:41:45;;;;;;;7.60;3.80;;;;;;;18.49;49.44;102254.08;106413;1253;22663;-51
2023/05/14 01:44:12;;;;;;;7.10;4.00;;;;;;;18.47;49.19;102253.80;106458;1270;22534;-51
2023/05/14 01:46:40;;;;;;;4.70;3.40;;;;;;;18.46;49.05;102258.24;106728;1275;24383;-51
2023/05/14 01:49:07;;;;;;;4.00;3.50;;;;;;;18.44;48.70;102260.22;106689;1277;22540;-52
2023/05/14 01:51:34;;;;;;;5.60;3.70;;;;;;;18.42;48.23;102258.86;106837;1270;22531;-51
2023/05/14 01:54:02;;;;;;;6.10;3.60;;;;;;;18.41;47.96;102256.08;106795;1270;22532;-51
2023/05/14 01:56:29;;;;;;;7.30;4.50;;;;;;;18.38;47.70;102258.64;106745;1270;22534;-52
2023/05/14 01:58:56;;;;;;;7.80;3.80;;;;;;;18.39;47.74;102255.24;106716;1278;22553;-51
2023/05/14 02:01:24;;;;;;;4.30;3.60;;;;;;;18.39;47.89;102256.50;106773;1264;24274;-51
2023/05/14 02:03:52;;;;;;;4.60;3.80;;;;;;;18.36;48.30;102253.59;106856;1271;22516;-50
2023/05/14 02:06:20;;;;;;;6.10;3.70;;;;;;;18.35;48.46;102252.38;106679;1263;22589;-50
2023/05/14 02:08:47;;;;;;;7.50;3.90;;;;;;;18.34;48.62;102254.52;106764;1272;24463;-51
2023/05/14 02:11:14;;;;;;;5.20;3.70;;;;;;;18.33;48.93;102258.08;106716;1273;22635;-51
2023/05/14 02:13:41;;;;;;;3.90;3.50;;;;;;;18.32;49.51;102255.29;106987;1270;22517;-51
2023/05/14 02:16:09;;;;;;;5.50;4.10;;;;;;;18.30;49.90;102253.09;107002;1269;22771;-51
2023/05/14 02:18:36;;;;;;;4.30;3.50;;;;;;;18.28;49.71;102250.49;107046;1267;22531;-50
2023/05/14 02:21:03;;;;;;;5.20;4.10;;;;;;;18.27;50.15;102251.59;106981;1266;25597;-50
2023/05/14 02:23:31;;;;;;;5.10;3.70;;;;;;;18.26;50.19;102256.70;106974;1270;24230;-49
2023/05/14 02:26:08;;;;;;;4.20;3.80;;;;;;;18.25;50.18;102254.98;106790;1267;25488;-50
2023/05/14 02:28:35;;;;;;;6.60;4.00;;;;;;;18.24;50.04;102254.30;107153;1267;22609;-51
2023/05/14 02:31:03;;;;;;;9.60;4.10;;;;;;;18.22;50.04;102253.11;107050;1270;22566;-50
2023/05/14 02:33:30;;;;;;;5.90;3.40;;;;;;;18.20;49.61;102253.20;107059;1266;22530;-50
2023/05/14 02:35:57;;;;;;;9.00;4.10;;;;;;;18.18;49.62;102253.60;107046;1270;24448;-50
2023/05/14 02:38:25;;;;;;;4.80;3.40;;;;;;;18.16;49.46;102256.45;106981;1270;22517;-50
2023/05/14 02:40:54;;;;;;;4.80;3.70;;;;;;;18.16;49.39;102258.06;107045;1270;25559;-50
2023/05/14 02:43:21;;;;;;;7.00;4.30;;;;;;;18.15;49.31;102258.97;106991;1270;25234;-50
2023/05/14 02:45:48;;;;;;;5.60;3.80;;;;;;;18.14;49.06;102261.27;107011;1254;25457;-50
2023/05/14 02:48:15;;;;;;;5.80;3.70;;;;;;;18.13;49.16;102262.19;107005;1270;24442;-50
2023/05/14 02:50:42;;;;;;;5.10;3.70;;;;;;;18.06;49.28;102260.45;107002;1267;24459;-51
2023/05/14 02:53:10;;;;;;;5.70;3.90;;;;;;;17.98;49.30;102263.15;107115;1266;24265;-51
2023/05/14 02:55:37;;;;;;;5.90;4.10;;;;;;;17.95;49.26;102265.54;106958;1267;22717;-52
2023/05/14 02:58:04;;;;;;;5.70;3.50;;;;;;;17.92;49.57;102270.17;106971;1272;23055;-51
2023/05/14 03:00:31;;;;;;;4.70;3.70;;;;;;;17.89;49.83;102274.98;106790;1274;22520;-51
2023/05/14 03:02:59;;;;;;;6.20;4.50;;;;;;;17.84;49.76;102274.95;106908;1270;25369;-50
2023/05/14 03:05:27;;;;;;;5.90;3.90;;;;;;;17.80;49.62;102271.36;107099;1254;24265;-51
2023/05/14 03:07:54;;;;;;;6.10;3.80;;;;;;;17.75;49.36;102271.86;107011;1269;22753;-51
2023/05/14 03:10:21;;;;;;;5.60;3.60;;;;;;;17.69;49.71;102272.20;107081;1270;22520;-51
2023/05/14 03:12:49;;;;;;;4.50;3.70;;;;;;;17.69;49.53;102277.81;107048;1267;22523;-51
2023/05/14 03:15:17;;;;;;;6.50;4.10;;;;;;;17.76;49.68;102280.42;107055;1267;25349;-50
2023/05/14 03:17:44;;;;;;;7.20;4.20;;;;;;;17.77;49.96;102282.67;107059;1270;24537;-51
2023/05/14 03:20:12;;;;;;;7.80;4.10;;;;;;;17.74;50.08;102280.13;106820;1273;22726;-51
2023/05/14 03:22:39;;;;;;;4.80;4.20;;;;;;;17.72;49.91;102284.75;107112;1273;22527;-51
2023/05/14 03:25:07;;;;;;;4.60;4.00;;;;;;;17.71;50.02;102284.79;107037;1266;24390;-52
2023/05/14 03:27:34;;;;;;;5.50;4.30;;;;;;;17.69;50.19;102287.98;107012;1267;22534;-51
2023/05/14 03:30:03;;;;;;;6.70;3.90;;;;;;;17.76;50.15;102286.22;107094;1273;25530;-52
2023/05/14 03:32:30;;;;;;;7.30;4.40;;;;;;;17.80;50.16;102286.45;107184;1267;22614;-51
2023/05/14 03:34:57;;;;;;;5.50;4.10;;;;;;;17.88;50.23;102287.14;106915;1267;24381;-51
2023/05/14 03:37:24;;;;;;;6.30;4.70;;;;;;;18.01;50.11;102289.05;106980;1267;22531;-52
2023/05/14 03:39:52;;;;;;;6.20;4.50;;;;;;;18.14;49.65;102288.14;107050;1267;24383;-51
2023/05/14 03:42:19;;;;;;;8.00;4.60;;;;;;;18.23;49.10;102289.98;107013;1270;22521;-52
2023/05/14 03:44:46;;;;;;;6.20;4.00;;;;;;;18.26;49.20;102290.80;106971;1267;22521;-51
2023/05/14 03:47:13;;;;;;;6.20;4.30;;;;;;;18.27;49.28;102294.26;107047;1270;25695;-52
2023/05/14 03:49:40;;;;;;;6.40;4.50;;;;;;;18.27;49.22;102297.95;107149;1270;25511;-51
2023/05/14 03:52:08;;;;;;;5.40;4.70;;;;;;;18.27;49.32;102297.77;106970;1269;22524;-51
2023/05/14 03:54:37;;;;;;;7.10;4.50;;;;;;;18.26;49.01;102300.09;107033;1267;24386;-51
2023/05/14 03:57:04;;;;;;;6.40;4.40;;;;;;;18.23;48.82;102299.30;107066;1267;24472;-51
2023/05/14 03:59:31;;;;;;;6.60;4.00;;;;;;;18.22;48.75;102306.17;107022;1267;22520;-51
2023/05/14 04:01:58;;;;;;;6.60;4.70;;;;;;;18.23;48.30;102304.21;107010;1267;22932;-52
2023/05/14 04:04:25;;;;;;;5.30;4.70;;;;;;;18.22;48.49;102310.39;106976;1267;25288;-51
2023/05/14 04:06:53;;;;;;;6.00;4.10;;;;;;;18.20;48.68;102306.05;107008;1273;22547;-51
2023/05/14 04:09:20;;;;;;;7.50;4.20;;;;;;;18.17;48.71;102300.88;106779;1270;22528;-52
2023/05/14 04:11:47;;;;;;;4.60;4.10;;;;;;;18.15;48.92;102300.41;107038;1267;24262;-51
2023/05/14 04:14:14;;;;;;;6.80;4.60;;;;;;;18.13;48.37;102299.25;107082;1267;22531;-52
2023/05/14 04:16:42;;;;;;;6.30;4.50;;;;;;;18.09;48.23;102298.67;107007;1273;24260;-51
2023/05/14 04:19:10;;;;;;;5.20;4.10;;;;;;;18.05;48.28;102298.25;107048;1267;22530;-51
2023/05/14 04:21:37;;;;;;;4.70;3.80;;;;;;;18.03;48.04;102297.77;107022;1269;25274;-51
2023/05/14 04:24:05;;;;;;;4.80;3.60;;;;;;;18.02;48.19;102300.95;107137;1269;22527;-51
2023/05/14 04:26:32;;;;;;;6.40;4.10;;;;;;;18.03;48.48;102297.44;106810;1273;24281;-51
2023/05/14 04:29:01;;;;;;;5.80;4.60;;;;;;;18.04;48.71;102304.06;107084;1270;24396;-51
2023/05/14 04:31:29;;;;;;;4.70;4.20;;;;;;;18.07;48.54;102306.63;107036;1269;22509;-51
2023/05/14 04:33:56;;;;;;;6.30;4.00;;;;;;;18.09;48.65;102309.37;107027;1267;22517;-51
2023/05/14 04:36:23;;;;;;;6.20;4.30;;;;;;;18.11;48.52;102305.64;107001;1270;25671;-51
2023/05/14 04:38:50;;;;;;;5.40;3.70;;;;;;;18.12;48.75;102302.97;107022;1273;22530;-51
2023/05/14 04:41:18;;;;;;;5.50;4.20;;;;;;;18.13;48.57;102305.93;107033;1269;24244;-51
2023/05/14 04:43:46;;;;;;;5.80;4.80;;;;;;;18.11;49.01;102308.08;107022;1270;24356;-51
2023/05/14 04:46:13;;;;;;;7.10;4.60;;;;;;;18.11;49.10;102308.80;106527;1275;24125;-51
2023/05/14 04:48:40;;;;;;;5.30;4.10;;;;;;;18.12;48.82;102309.29;107032;1269;25236;-51
2023/05/14 04:51:07;;;;;;;5.70;4.10;;;;;;;18.14;48.82;102314.69;107091;1254;24253;-51
2023/05/14 04:53:35;;;;;;;7.10;4.40;;;;;;;18.16;48.96;102318.81;107071;1268;24297;-51
2023/05/14 04:56:02;;;;;;;5.80;4.30;;;;;;;18.19;48.78;102324.70;107050;1273;22527;-52
2023/05/14 04:58:31;;;;;;;5.20;4.30;;;;;;;18.22;48.92;102317.23;106824;1269;22548;-52
2023/05/14 05:01:01;;;;;;;;;;;;;;;18.25;49.01;102318.92;107077;1267;22663;-51
2023/05/14 05:03:28;;;;;;;7.30;4.90;;;;;;;18.27;48.58;102317.98;107148;1267;22527;-51
2023/05/14 05:05:56;;;;;;;5.40;4.30;;;;;;;18.26;48.57;102322.41;107061;1267;22524;-51
2023/05/14 05:08:23;;;;;;;7.80;4.50;;;;;;;18.26;48.41;102321.70;107045;1267;22771;-52
2023/05/14 05:10:50;;;;;;;4.80;4.10;;;;;;;18.28;48.65;102322.87;107065;1267;24262;-51
2023/05/14 05:13:17;;;;;;;5.80;4.80;;;;;;;18.32;48.58;102325.54;106808;1267;24250;-51
2023/05/14 05:15:44;;;;;;;5.50;4.00;;;;;;;18.37;48.56;102329.47;106965;1272;24268;-51
2023/05/14 05:18:12;;;;;;;5.90;4.50;;;;;;;18.39;48.38;102323.94;106973;1269;25423;-51
2023/05/14 05:20:39;;;;;;;5.90;3.70;;;;;;;18.45;48.27;102319.77;106821;1271;24299;-51
2023/05/14 05:23:06;;;;;;;6.20;4.20;;;;;;;18.55;48.26;102321.74;106831;1272;24328;-51
2023/05/14 05:25:33;;;;;;;5.80;3.80;;;;;;;18.74;47.98;102320.81;107005;1270;22531;-52
2023/05/14 05:28:00;;;;;;;7.40;3.90;;;;;;;19.01;47.60;102317.50;106833;1273;25579;-51
2023/05/14 05:30:29;;;;;;;6.80;3.90;;;;;;;19.33;47.01;102323.30;107102;1266;25620;-52
2023/05/14 05:32:56;;;;;;;8.20;4.50;;;;;;;19.66;46.03;102317.80;106875;1267;23137;-51
2023/05/14 05:35:23;;;;;;;6.90;3.90;;;;;;;19.91;45.58;102317.10;107064;1272;22527;-52
2023/05/14 05:37:50;;;;;;;6.20;3.80;;;;;;;20.16;45.18;102321.10;107009;1269;22642;-52
2023/05/14 05:40:18;;;;;;;4.40;3.80;;;;;;;20.49;44.39;102325.16;107011;1269;24448;-52
2023/05/14 05:42:45;;;;;;;8.40;4.20;;;;;;;20.75;43.57;102329.59;107115;1268;22537;-51
2023/05/14 05:45:12;;;;;;;6.70;3.40;;;;;;;20.93;42.78;102326.58;106987;1267;22572;-52
2023/05/14 05:47:39;;;;;;;3.80;3.40;;;;;;;21.06;42.69;102324.67;106769;1267;22591;-52
2023/05/14 05:50:08;;;;;;;4.80;3.40;;;;;;;21.26;42.11;102332.36;107068;1267;22514;-51
2023/05/14 05:52:35;;;;;;;5.30;3.80;;;;;;;21.41;41.96;102332.94;106811;1267;26785;-51
2023/05/14 05:55:03;;;;;;;5.30;3.80;;;;;;;21.59;41.85;102333.39;107111;1273;22531;-52
2023/05/14 05:57:30;;;;;;;4.90;3.70;;;;;;;21.83;41.67;102336.08;105449;1270;1003085;-51
2023/05/14 05:59:57;;;;;;;7.10;3.80;;;;;;;22.08;41.18;102339.40;107024;1267;22513;-51
2023/05/14 06:02:24;;;;;;;4.10;3.40;;;;;;;22.32;40.78;102342.56;106952;1273;26278;-52
2023/05/14 06:04:52;;;;;;;8.30;3.40;;;;;;;22.46;40.43;102341.52;107087;1273;22531;-52
2023/05/14 06:07:19;;;;;;;4.60;3.70;;;;;;;22.45;40.11;102342.29;107026;1254;22524;-52
2023/05/14 06:09:47;;;;;;;4.00;3.50;;;;;;;22.39;40.39;102341.88;107095;1268;24272;-52
2023/05/14 06:12:14;;;;;;;5.00;3.80;;;;;;;22.40;40.01;102338.96;106844;1272;22535;-52
2023/05/14 06:14:41;;;;;;;6.50;3.80;;;;;;;22.39;40.05;102338.52;107036;1269;25192;-52
2023/05/14 06:17:08;;;;;;;4.90;3.70;;;;;;;22.38;40.06;102336.77;107046;1268;24374;-51
2023/05/14 06:19:35;;;;;;;4.40;3.30;;;;;;;22.42;40.30;102339.06;106845;1267;23522;-52
2023/05/14 06:22:02;;;;;;;4.60;3.50;;;;;;;22.46;40.04;102338.86;107152;1266;22528;-51
2023/05/14 06:24:30;;;;;;;4.80;3.40;;;;;;;22.49;40.34;102341.57;107043;1267;22517;-51
2023/05/14 06:26:57;;;;;;;5.00;3.40;;;;;;;22.60;40.01;102342.16;106901;1273;25742;-51
2023/05/14 06:29:24;;;;;;;4.00;3.50;;;;;;;22.76;40.09;102343.20;106825;1270;24253;-50
2023/05/14 06:31:51;;;;;;;3.50;2.80;;;;;;;23.04;39.55;102341.65;107040;1270;22524;-51
2023/05/14 06:34:18;;;;;;;5.50;3.60;;;;;;;23.24;38.92;102340.45;107052;1254;22516;-52
2023/05/14 06:36:46;;;;;;;5.60;3.40;;;;;;;23.31;38.54;102341.01;107039;1269;22618;-51
2023/05/14 06:39:13;;;;;;;3.70;3.20;;;;;;;23.35;38.17;102339.95;106991;1270;24372;-51
2023/05/14 06:41:40;;;;;;;3.30;3.00;;;;;;;23.37;38.08;102339.29;107005;1269;22514;-51
2023/05/14 06:44:08;;;;;;;4.50;3.10;;;;;;;23.40;37.88;102340.04;107086;1270;24271;-51
2023/05/14 06:46:35;;;;;;;4.80;3.20;;;;;;;23.41;37.98;102339.46;107126;1257;24250;-51
2023/05/14 06:49:03;;;;;;;3.40;3.10;;;;;;;23.43;38.13;102338.83;106832;1270;24278;-52
2023/05/14 06:51:30;;;;;;;3.50;3.20;;;;;;;23.53;37.75;102331.75;107145;1266;24273;-52
2023/05/14 06:53:57;;;;;;;3.50;3.20;;;;;;;23.66;37.29;102330.02;107075;1266;22524;-52
2023/05/14 06:56:24;;;;;;;4.90;3.30;;;;;;;23.67;37.25;102329.63;107032;1273;24225;-52
2023/05/14 06:58:51;;;;;;;5.30;3.50;;;;;;;23.62;37.61;102326.34;107080;1270;25481;-53
2023/05/14 07:01:19;;;;;;;4.40;3.30;;;;;;;23.68;37.61;102332.21;107041;1269;24347;-51
2023/05/14 07:03:46;;;;;;;3.20;2.90;;;;;;;23.82;37.81;102332.17;107010;1269;22525;-52
2023/05/14 07:06:13;;;;;;;4.80;3.10;;;;;;;24.01;37.54;102332.07;106840;1270;22627;-52
2023/05/14 07:08:44;;;;;;;3.90;3.00;;;;;;;24.11;37.36;102327.27;106813;1267;372367;-52
2023/05/14 07:11:14;;;;;;;7.20;2.90;;;;;;;24.20;37.46;102334.91;106794;1273;23860;-52
2023/05/14 07:13:41;;;;;;;6.00;2.90;;;;;;;24.36;37.17;102331.44;107000;1267;22520;-52
2023/05/14 07:16:09;;;;;;;5.50;3.10;;;;;;;24.55;36.89;102330.39;106917;1267;22564;-51
2023/05/14 07:18:36;;;;;;;4.50;3.20;;;;;;;24.72;36.47;102333.35;105689;1273;1015750;-52
2023/05/14 07:21:05;;;;;;;4.60;2.80;;;;;;;24.83;36.33;102331.83;107019;1268;23459;-52
2023/05/14 07:23:35;;;;;;;5.00;3.00;;;;;;;24.90;35.98;102330.20;106833;1270;24415;-51
2023/05/14 07:26:02;;;;;;;7.00;2.80;;;;;;;24.97;36.03;102330.67;107030;1269;24222;-52
2023/05/14 07:28:30;;;;;;;3.00;2.70;;;;;;;25.15;35.98;102327.71;107079;1268;23133;-51
2023/05/14 07:30:57;;;;;;;4.60;2.90;;;;;;;25.41;34.98;102323.86;106981;1270;24387;-51
2023/05/14 07:33:24;;;;;;;2.60;2.40;;;;;;;25.59;34.51;102320.14;106801;1267;22644;-52
2023/05/14 07:35:51;;;;;;;5.30;2.90;;;;;;;25.57;34.24;102326.83;106874;1270;24312;-51
2023/05/14 07:38:18;;;;;;;3.70;2.40;;;;;;;25.46;34.52;102323.89;107088;1267;22636;-52
2023/05/14 07:40:46;;;;;;;4.00;3.30;;;;;;;25.32;34.88;102323.48;106839;1270;24301;-51
2023/05/14 07:43:13;;;;;;;4.10;3.00;;;;;;;25.17;35.23;102322.58;107057;1267;24246;-51
2023/05/14 07:45:40;;;;;;;3.10;2.70;;;;;;;25.02;35.66;102325.24;107027;1267;22523;-52
2023/05/14 07:48:07;;;;;;;3.50;3.10;;;;;;;24.85;35.96;102320.72;107006;1267;24448;-51
2023/05/14 07:50:36;;;;;;;5.60;3.10;;;;;;;24.73;36.26;102319.44;106423;1267;1003713;-51
2023/05/14 07:53:03;;;;;;;5.10;2.90;;;;;;;24.64;36.77;102320.14;106944;1270;25491;-51
2023/05/14 07:55:30;;;;;;;5.00;3.70;;;;;;;24.54;37.41;102315.34;106649;1275;22540;-51
2023/05/14 07:57:57;;;;;;;5.70;3.30;;;;;;;24.50;37.84;102311.89;106724;1270;24362;-52
2023/05/14 08:00:24;;;;;;;4.30;3.10;;;;;;;24.52;37.82;102312.12;106865;1269;22516;-51
2023/05/14 08:02:53;;;;;;;4.70;2.80;;;;;;;24.58;38.24;102312.99;106817;1269;22531;-52
2023/05/14 08:05:21;;;;;;;5.40;3.20;;;;;;;24.63;38.44;102312.93;106800;1274;22770;-51
2023/05/14 08:07:48;;;;;;;3.20;2.90;;;;;;;24.75;38.63;102311.38;106745;1269;24311;-51
2023/05/14 08:10:15;;;;;;;4.20;3.10;;;;;;;24.84;38.15;102308.34;107290;1269;24282;-51
2023/05/14 08:12:42;;;;;;;3.70;2.70;;;;;;;24.90;37.62;102306.98;106893;1269;24373;-52
2023/05/14 08:15:09;;;;;;;4.30;2.80;;;;;;;24.93;37.29;102314.92;106933;1269;23135;-51
2023/05/14 08:17:37;;;;;;;3.70;2.90;;;;;;;24.94;37.28;102318.46;107003;1263;22527;-52
2023/05/14 08:20:06;;;;;;;4.40;3.30;;;;;;;24.94;37.17;102323.24;106875;1263;22496;-51
2023/05/14 08:22:33;;;;;;;3.70;3.30;;;;;;;24.94;37.60;102326.21;107351;1269;22522;-52
2023/05/14 08:25:02;;;;;;;3.40;3.10;;;;;;;24.96;36.60;102326.30;107098;1262;22627;-50
2023/05/14 08:27:29;;;;;;;3.90;2.90;;;;;;;24.94;35.41;102324.67;106959;1266;22780;-51
2023/05/14 08:29:56;;;;;;;3.40;2.90;;;;;;;24.89;34.85;102324.56;107232;1263;22556;-52
2023/05/14 08:32:23;;;;;;;4.80;3.50;;;;;;;24.84;35.46;102328.76;107401;1269;25293;-51
2023/05/14 08:34:51;;;;;;;4.30;3.20;;;;;;;24.81;35.16;102330.91;107409;1269;25284;-51
2023/05/14 08:37:18;;;;;;;4.00;2.80;;;;;;;24.77;35.09;102329.02;107077;1272;24390;-51
2023/05/14 08:39:45;;;;;;;4.60;2.80;;;;;;;24.73;34.97;102327.63;107306;1262;22527;-52
2023/05/14 08:42:12;;;;;;;3.60;2.60;;;;;;;24.71;34.62;102323.11;108068;1269;22698;-52
2023/05/14 08:44:42;;;;;;;2.60;2.20;;;;;;;24.71;33.35;102318.14;107273;1254;22524;-51
2023/05/14 08:47:10;;;;;;;2.90;2.30;;;;;;;24.71;32.61;102319.39;106888;1269;24282;-51
2023/05/14 08:49:41;;;;;;;4.40;2.50;;;;;;;24.72;32.90;102320.03;107230;1262;22999;-52
2023/05/14 08:52:08;;;;;;;;;;;;;;;24.77;32.11;102318.34;107110;1266;25386;-51
2023/05/14 08:54:35;;;;;;;3.90;2.50;;;;;;;24.84;31.94;102318.85;107213;1267;23208;-51
2023/05/14 08:57:03;;;;;;;4.20;2.40;;;;;;;24.88;33.30;102315.04;107623;1266;24373;-51
2023/05/14 08:59:31;;;;;;;3.50;2.60;;;;;;;24.90;33.87;102316.39;107143;1272;22526;-51
2023/05/14 09:02:00;;;;;;;4.10;3.40;;;;;;;24.92;33.84;102322.27;107111;1267;22524;-51
2023/05/14 09:04:28;;;;;;;2.80;2.50;;;;;;;24.93;35.08;102324.35;107199;1266;25437;-51
2023/05/14 09:06:55;;;;;;;3.60;3.00;;;;;;;24.91;34.93;102323.38;107083;1269;22768;-52
2023/05/14 09:09:22;;;;;;;3.40;3.10;;;;;;;24.90;35.72;102320.98;107228;1267;22548;-51
2023/05/14 09:11:51;;;;;;;3.40;2.80;;;;;;;24.92;35.93;102319.98;107404;1251;24389;-52
2023/05/14 09:14:18;;;;;;;2.80;2.50;;;;;;;24.95;35.87;102315.38;107277;1266;22520;-51
2023/05/14 09:16:46;;;;;;;3.70;2.60;;;;;;;24.95;34.49;102315.18;107862;1260;25359;-52
2023/05/14 09:19:14;;;;;;;2.30;2.10;;;;;;;24.96;33.68;102312.43;108097;1267;22543;-52
2023/05/14 09:21:42;;;;;;;3.30;2.50;;;;;;;25.02;32.91;102311.77;107641;1269;25246;-51
2023/05/14 09:24:20;;;;;;;3.40;2.70;;;;;;;25.09;32.25;102311.86;107631;1266;24803;-52
2023/05/14 09:26:52;;;;;;;3.60;2.60;;;;;;;25.18;32.19;102308.67;107325;1269;22539;-51
2023/05/14 09:29:36;;;;;;;3.50;2.70;;;;;;;25.26;33.48;102310.70;106850;1276;22564;-52
2023/05/14 09:32:06;;;;;;;2.90;2.50;;;;;;;25.32;33.69;102312.48;108157;1277;25608;-51
2023/05/14 09:34:33;;;;;;;2.90;2.40;;;;;;;25.36;34.55;102307.28;106572;1272;24232;-49
2023/05/14 09:37:03;;;;;;;3.90;2.90;;;;;;;25.37;35.17;102308.06;106509;1272;22546;-49
2023/05/14 09:39:31;;;;;;;5.30;3.00;;;;;;;25.37;36.08;102304.01;106212;1276;24225;-48
2023/05/14 09:41:58;;;;;;;7.90;3.40;;;;;;;25.34;36.20;102303.14;106259;1270;24735;-48
2023/05/14 09:44:26;;;;;;;5.10;3.10;;;;;;;25.28;36.39;102300.65;106694;1277;24199;-47
2023/05/14 09:46:53;;;;;;;4.40;3.00;;;;;;;25.21;36.80;102304.27;106799;1272;24199;-48
2023/05/14 09:49:21;;;;;;;4.10;2.60;;;;;;;25.15;36.58;102305.70;106828;1272;22948;-48
2023/05/14 09:51:48;;;;;;;3.40;3.10;;;;;;;25.10;36.79;102306.34;106628;1276;24278;-48
2023/05/14 09:54:16;;;;;;;3.10;2.50;;;;;;;25.05;37.17;102303.06;106735;1276;24265;-49
2023/05/14 09:56:43;;;;;;;4.50;2.70;;;;;;;25.03;37.29;102303.19;106824;1271;22999;-48
2023/05/14 09:59:11;;;;;;;4.30;3.20;;;;;;;25.00;37.43;102307.06;106775;1271;22550;-50
2023/05/14 10:01:38;;;;;;;5.80;2.50;;;;;;;25.01;37.38;102310.58;106771;1269;22728;-48
2023/05/14 10:04:06;;;;;;;3.00;2.70;;;;;;;25.02;37.19;102313.02;106961;1272;22517;-48
2023/05/14 10:06:37;;;;;;;3.20;2.50;;;;;;;25.01;37.03;102311.29;106925;1269;22510;-48
2023/05/14 10:09:12;;;;;;;6.00;2.90;;;;;;;25.00;37.32;102311.88;107010;1275;24342;-50
2023/05/14 10:11:42;;;;;;;2.70;2.40;;;;;;;25.00;37.95;102310.27;106989;1269;22524;-46
2023/05/14 10:14:34;;;;;;;2.50;2.30;;;;;;;25.04;38.45;102308.10;106791;1267;22520;-47
2023/05/14 10:17:01;;;;;;;4.40;3.10;;;;;;;25.12;38.47;102310.31;107022;1270;22511;-49
2023/05/14 10:19:28;;;;;;;4.40;2.80;;;;;;;25.18;37.85;102309.20;107022;1269;22523;-48
2023/05/14 10:22:03;;;;;;;3.10;2.80;;;;;;;25.25;38.09;102310.08;107047;1272;22531;-52
2023/05/14 10:24:30;;;;;;;3.30;3.00;;;;;;;25.32;38.35;102311.42;106936;1269;25527;-47
2023/05/14 10:26:57;;;;;;;3.80;3.00;;;;;;;25.37;38.10;102310.92;106985;1269;24281;-52
2023/05/14 10:29:34;;;;;;;3.70;3.00;;;;;;;25.41;38.13;102306.63;106989;1267;22956;-51
2023/05/14 10:32:06;;;;;;;2.70;2.50;;;;;;;25.45;37.97;102305.87;107036;1269;22527;-49
2023/05/14 10:34:37;;;;;;;3.20;2.60;;;;;;;25.49;37.66;102310.78;105539;1267;1002950;-46
2023/05/14 10:37:13;;;;;;;5.10;2.60;;;;;;;25.52;37.47;102311.48;107118;1273;22524;-47
2023/05/14 10:39:47;;;;;;;3.20;2.50;;;;;;;25.55;37.12;102310.23;106989;1267;24403;-48
2023/05/14 10:42:27;;;;;;;4.00;2.40;;;;;;;25.57;36.54;102306.20;107064;1269;22530;-47
2023/05/14 10:45:06;;;;;;;3.10;2.20;;;;;;;25.58;36.38;102305.41;107126;1269;22566;-48
2023/05/14 10:47:34;;;;;;;5.10;2.30;;;;;;;25.58;36.27;102308.59;106875;1272;25383;-47
2023/05/14 10:50:04;;;;;;;3.20;2.50;;;;;;;25.59;35.85;102313.90;107070;1268;22532;-50
2023/05/14 10:52:31;;;;;;;2.90;2.60;;;;;;;25.60;35.84;102310.61;106960;1270;25328;-50
2023/05/14 10:55:02;;;;;;;3.30;2.70;;;;;;;25.60;35.95;102307.23;106742;1272;25417;-47
2023/05/14 10:57:30;;;;;;;;;;;;;;;25.62;36.22;102308.20;107201;1269;22513;-47
2023/05/14 10:59:58;;;;;;;3.00;2.00;;;;;;;25.63;36.32;102311.16;107030;1270;22531;-50
2023/05/14 11:02:32;;;;;;;4.50;2.60;;;;;;;25.63;36.28;102310.10;107036;1273;25374;-48
2023/05/14 11:05:12;;;;;;;3.20;2.40;;;;;;;25.63;35.80;102312.04;107063;1269;24542;-48
2023/05/14 11:07:41;;;;;;;3.70;3.20;;;;;;;25.62;36.16;102310.85;106873;1270;22606;-47
2023/05/14 11:10:09;;;;;;;3.00;2.70;;;;;;;25.60;36.06;102310.29;107044;1269;24325;-52
2023/05/14 11:12:39;;;;;;;2.90;2.40;;;;;;;25.58;36.05;102308.62;107047;1267;22607;-50
2023/05/14 11:15:08;;;;;;;5.20;3.20;;;;;;;25.56;35.92;102304.29;106657;1274;22627;-51
2023/05/14 11:17:36;;;;;;;5.70;2.50;;;;;;;25.54;35.92;102304.79;107145;1267;24707;-47
2023/05/14 11:20:06;;;;;;;3.00;2.70;;;;;;;25.51;35.96;102305.48;106982;1267;22533;-47
2023/05/14 11:22:34;;;;;;;2.90;2.20;;;;;;;25.48;36.42;102307.63;107062;1269;22520;-48